createdAt,value
2023-03-30T00:03:42.718Z,36.94
2023-03-30T00:08:40.797Z,37.25
2023-03-30T00:13:39.472Z,37.26
2023-03-30T00:18:36.823Z,37.23
2023-03-30T00:23:33.643Z,37.10
2023-03-30T00:28:34.944Z,37.91
2023-03-30T00:33:44.875Z,37.17
2023-03-30T00:38:44.845Z,38.72
2023-03-30T00:44:00.158Z,39.23
2023-03-30T00:49:03.450Z,39.18
2023-03-30T00:54:06.738Z,39.50
2023-03-30T00:59:05.079Z,39.06
2023-03-30T01:04:06.131Z,38.88
2023-03-30T01:09:03.444Z,39.01
2023-03-30T01:14:03.660Z,39.74
2023-03-30T01:19:23.814Z,39.55
2023-03-30T01:24:48.390Z,39.46
2023-03-30T01:30:07.862Z,38.92
2023-03-30T01:35:27.764Z,38.04
2023-03-30T01:40:29.516Z,37.38
2023-03-30T01:45:36.374Z,37.77
2023-03-30T01:50:39.896Z,38.11
2023-03-30T01:55:43.067Z,38.97
2023-03-30T02:00:48.360Z,39.13
2023-03-30T02:05:49.597Z,39.20
2023-03-30T02:10:49.503Z,39.50
2023-03-30T02:15:50.287Z,39.72
2023-03-30T02:20:48.857Z,39.86
2023-03-30T02:25:46.006Z,39.09
2023-03-30T02:30:45.384Z,39.35
2023-03-30T02:35:59.077Z,39.47
2023-03-30T02:41:08.916Z,39.08
2023-03-30T02:46:38.420Z,39.43
2023-03-30T02:51:42.719Z,38.83
2023-03-30T02:56:56.801Z,39.06
2023-03-30T03:01:58.639Z,39.11
2023-03-30T03:06:56.584Z,39.55
2023-03-30T03:11:53.637Z,39.48
2023-03-30T03:16:51.504Z,40.10
2023-03-30T03:21:51.149Z,39.88
2023-03-30T03:26:48.833Z,40.10
2023-03-30T03:31:45.881Z,40.32
2023-03-30T03:36:43.325Z,40.38
2023-03-30T03:41:41.194Z,40.12
2023-03-30T03:46:38.828Z,40.56
2023-03-30T03:51:37.924Z,40.58
2023-03-30T03:56:35.592Z,40.91
2023-03-30T04:01:33.253Z,40.59
2023-03-30T04:06:30.165Z,40.37
2023-03-30T04:11:27.098Z,40.21
2023-03-30T04:16:39.032Z,40.81
2023-03-30T04:21:50.330Z,40.96
2023-03-30T04:27:09.064Z,41.11
2023-03-30T04:32:54.066Z,40.96
2023-03-30T04:38:24.734Z,41.16
2023-03-30T04:43:36.814Z,41.13
2023-03-30T04:48:37.064Z,41.00
2023-03-30T04:53:43.130Z,41.10
2023-03-30T04:59:02.461Z,41.05
2023-03-30T05:04:22.396Z,40.39
2023-03-30T05:09:38.115Z,40.35
2023-03-30T05:14:53.610Z,39.24
2023-03-30T05:20:17.643Z,38.18
2023-03-30T05:25:49.913Z,37.13
2023-03-30T05:31:11.347Z,34.33
2023-03-30T05:36:24.422Z,32.05
2023-03-30T05:41:37.055Z,29.71
2023-03-30T05:46:51.456Z,26.99
2023-03-30T05:52:10.232Z,22.39
2023-03-30T05:57:27.705Z,22.74
2023-03-30T06:02:58.647Z,20.83
2023-03-30T06:08:00.268Z,19.80
2023-03-30T06:12:57.921Z,18.39
2023-03-30T06:18:03.391Z,17.67
2023-03-30T06:23:03.835Z,16.61
2023-03-30T06:28:01.688Z,15.94
2023-03-30T06:33:04.985Z,16.30
2023-03-30T06:38:14.906Z,16.01
2023-03-30T06:43:16.115Z,15.41
2023-03-30T06:48:24.826Z,15.26
2023-03-30T06:53:45.200Z,14.66
2023-03-30T06:58:42.290Z,14.20
2023-03-30T07:03:47.462Z,14.95
2023-03-30T07:08:53.888Z,15.99
2023-03-30T07:14:00.499Z,14.38
2023-03-30T07:19:00.647Z,13.41
2023-03-30T07:24:00.538Z,12.92
2023-03-30T07:29:04.817Z,12.54
2023-03-30T07:34:10.262Z,12.32
2023-03-30T07:39:12.683Z,11.50
2023-03-30T07:44:12.719Z,11.77
2023-03-30T07:49:10.396Z,11.67
2023-03-30T07:54:09.748Z,11.72
2023-03-30T07:59:31.439Z,11.08
2023-03-30T08:04:43.226Z,10.91
2023-03-30T08:09:40.944Z,10.26
2023-03-30T08:14:38.787Z,9.86
2023-03-30T08:19:35.614Z,9.60
2023-03-30T08:24:32.911Z,9.38
2023-03-30T08:29:30.946Z,9.13
2023-03-30T08:34:29.049Z,9.01
2023-03-30T08:39:26.283Z,9.01
2023-03-30T08:44:33.444Z,8.08
2023-03-30T08:49:37.124Z,7.68
2023-03-30T08:54:34.288Z,7.58
2023-03-30T08:59:44.129Z,7.55
2023-03-30T09:04:57.272Z,6.86
2023-03-30T09:09:57.183Z,7.79
2023-03-30T09:14:58.067Z,6.92
2023-03-30T09:20:01.204Z,7.46
2023-03-30T09:25:02.343Z,7.75
2023-03-30T09:30:07.877Z,7.20
2023-03-30T09:35:13.838Z,7.64
2023-03-30T09:40:36.621Z,7.62
2023-03-30T09:45:34.229Z,8.16
2023-03-30T09:50:37.566Z,8.85
2023-03-30T09:55:36.586Z,8.72
2023-03-30T10:00:34.165Z,8.03
2023-03-30T10:05:33.650Z,7.37
2023-03-30T10:10:34.951Z,7.97
2023-03-30T10:15:32.485Z,8.24
2023-03-30T10:20:35.540Z,8.09
2023-03-30T10:25:33.639Z,7.22
2023-03-30T10:30:31.956Z,8.13
2023-03-30T10:35:36.441Z,8.20
2023-03-30T10:40:36.579Z,9.10
2023-03-30T10:45:40.443Z,9.67
2023-03-30T10:50:48.526Z,9.32
2023-03-30T10:55:53.006Z,10.18
2023-03-30T11:01:03.784Z,10.93
2023-03-30T11:06:09.613Z,12.06
2023-03-30T11:11:12.765Z,12.82
2023-03-30T11:16:16.140Z,13.68
2023-03-30T11:21:19.774Z,14.28
2023-03-30T11:26:20.187Z,14.43
2023-03-30T11:31:33.199Z,14.51
2023-03-30T11:36:35.666Z,15.17
2023-03-30T11:41:38.705Z,14.93
2023-03-30T11:46:42.866Z,15.72
2023-03-30T11:51:53.257Z,15.71
2023-03-30T11:56:55.889Z,15.08
2023-03-30T12:02:06.979Z,15.31
2023-03-30T12:07:11.732Z,16.11
2023-03-30T12:12:15.030Z,16.33
2023-03-30T12:17:27.373Z,16.40
2023-03-30T12:22:35.212Z,16.38
2023-03-30T12:27:36.467Z,17.05
2023-03-30T12:32:35.264Z,17.45
2023-03-30T12:37:41.127Z,16.73
2023-03-30T12:42:46.441Z,18.01
2023-03-30T12:48:01.578Z,17.70
2023-03-30T12:53:23.599Z,18.00
2023-03-30T12:58:43.562Z,18.07
2023-03-30T13:03:49.667Z,17.59
2023-03-30T13:08:47.771Z,17.90
2023-03-30T13:13:56.548Z,17.82
2023-03-30T13:18:55.406Z,17.54
2023-03-30T13:24:07.562Z,17.55
2023-03-30T13:29:08.025Z,17.88
2023-03-30T13:34:23.245Z,17.48
2023-03-30T13:39:29.026Z,17.98
2023-03-30T13:44:46.092Z,17.67
2023-03-30T13:49:58.215Z,18.02
2023-03-30T13:54:56.153Z,17.78
2023-03-30T13:59:57.931Z,18.49
2023-03-30T14:04:54.866Z,18.77
2023-03-30T14:10:08.848Z,18.40
2023-03-30T14:15:19.371Z,18.38
2023-03-30T14:20:28.335Z,19.03
2023-03-30T14:25:28.672Z,19.37
2023-03-30T14:30:28.903Z,19.51
2023-03-30T14:35:26.178Z,19.92
2023-03-30T14:40:24.613Z,20.09
2023-03-30T14:45:22.370Z,19.07
2023-03-30T14:50:19.508Z,18.80
2023-03-30T14:55:20.690Z,17.54
2023-03-30T15:00:20.408Z,17.44
2023-03-30T15:05:19.841Z,17.31
2023-03-30T15:10:25.249Z,17.61
2023-03-30T15:15:24.736Z,18.72
2023-03-30T15:20:29.336Z,18.25
2023-03-30T15:25:31.587Z,18.21
2023-03-30T15:30:36.123Z,18.89
2023-03-30T15:35:39.926Z,18.28
2023-03-30T15:40:39.911Z,18.62
2023-03-30T15:45:37.007Z,18.89
2023-03-30T15:50:36.293Z,18.92
2023-03-30T15:55:33.782Z,18.89
2023-03-30T16:00:35.295Z,18.99
2023-03-30T16:05:33.672Z,19.28
2023-03-30T16:10:34.512Z,19.46
2023-03-30T16:15:33.165Z,19.62
2023-03-30T16:20:31.926Z,19.88
2023-03-30T16:30:33.525Z,20.13
2023-03-30T16:35:31.112Z,20.46
2023-03-30T16:40:32.650Z,20.49
2023-03-30T16:45:30.827Z,20.67
2023-03-30T16:50:37.335Z,21.25
2023-03-30T16:55:34.774Z,21.36
2023-03-30T17:00:36.363Z,21.79
2023-03-30T17:05:33.813Z,22.33
2023-03-30T17:10:33.869Z,22.58
2023-03-30T17:15:31.232Z,23.11
2023-03-30T17:20:35.615Z,22.94
2023-03-30T17:25:35.442Z,23.63
2023-03-30T17:30:35.194Z,23.84
2023-03-30T17:35:33.924Z,23.91
2023-03-30T17:40:32.383Z,24.57
2023-03-30T17:45:30.015Z,24.63
2023-03-30T17:50:36.063Z,24.94
2023-03-30T17:55:34.047Z,25.64
2023-03-30T18:00:32.963Z,25.58
2023-03-30T18:05:31.810Z,26.29
2023-03-30T18:10:35.420Z,26.50
2023-03-30T18:15:36.222Z,26.80
2023-03-30T18:20:35.654Z,26.78
2023-03-30T18:25:35.825Z,26.87
2023-03-30T18:30:36.290Z,26.91
2023-03-30T18:35:35.964Z,27.30
2023-03-30T18:40:36.121Z,27.00
2023-03-30T18:45:35.257Z,26.51
2023-03-30T18:50:35.231Z,25.93
2023-03-30T18:55:34.090Z,26.19
2023-03-30T19:00:34.445Z,25.94
2023-03-30T19:05:32.903Z,25.88
2023-03-30T19:10:32.658Z,25.85
2023-03-30T19:15:32.623Z,25.83
2023-03-30T19:20:31.672Z,25.25
2023-03-30T19:25:28.544Z,24.87
2023-03-30T19:30:26.397Z,24.84
2023-03-30T19:35:25.255Z,25.27
2023-03-30T19:40:22.532Z,25.43
2023-03-30T19:45:22.261Z,25.15
2023-03-30T19:50:22.518Z,25.37
2023-03-30T19:55:20.729Z,25.29
2023-03-30T20:00:19.106Z,25.38
2023-03-30T20:05:16.888Z,25.35
2023-03-30T20:10:16.348Z,24.68
2023-03-30T20:15:14.369Z,25.54
2023-03-30T20:20:13.449Z,24.81
2023-03-30T20:25:12.951Z,25.39
2023-03-30T20:30:12.041Z,25.10
2023-03-30T20:35:11.142Z,25.09
2023-03-30T20:40:09.421Z,24.49
2023-03-30T20:45:07.831Z,24.10
2023-03-30T20:50:05.880Z,24.41
2023-03-30T20:55:03.873Z,24.24
2023-03-30T21:00:01.019Z,24.62
2023-03-30T21:04:59.500Z,25.11
2023-03-30T21:09:56.252Z,24.82
2023-03-30T21:14:53.697Z,23.86
2023-03-30T21:19:50.450Z,24.13
2023-03-30T21:24:47.266Z,23.95
2023-03-30T21:29:44.027Z,24.47
2023-03-30T21:34:41.401Z,25.02
2023-03-30T21:39:38.400Z,25.66
2023-03-30T21:44:36.104Z,26.21
2023-03-30T21:49:33.250Z,27.03
2023-03-30T21:54:30.680Z,27.99
2023-03-30T21:59:27.575Z,26.78
2023-03-30T22:04:24.905Z,26.72
2023-03-30T22:09:21.753Z,27.25
2023-03-30T22:14:19.494Z,28.02
2023-03-30T22:19:17.923Z,27.97
2023-03-30T22:24:16.874Z,28.54
2023-03-30T22:29:13.781Z,29.03
2023-03-30T22:34:11.525Z,29.55
2023-03-30T22:39:08.529Z,30.16
2023-03-30T22:44:05.798Z,30.83
2023-03-30T22:49:03.104Z,30.93
2023-03-30T22:54:00.860Z,31.67
2023-03-30T22:58:59.450Z,32.13
2023-03-30T23:03:58.820Z,32.57
2023-03-30T23:08:55.798Z,32.90
2023-03-30T23:13:53.371Z,33.42
2023-03-30T23:18:50.813Z,33.54
2023-03-30T23:23:47.586Z,33.99
2023-03-30T23:28:44.675Z,33.97
2023-03-30T23:33:42.477Z,33.81
2023-03-30T23:38:39.388Z,33.97
2023-03-30T23:43:36.270Z,34.02
2023-03-30T23:48:33.411Z,33.77
2023-03-30T23:53:31.016Z,33.69
2023-03-30T23:58:27.913Z,32.22
